sensor_id;sensor_type;location;lat;lon;timestamp;pressure;altitude;pressure_sealevel;temperature
24201;BMP280;2801;50.972;7.856;2023-06-05T00:01:59;98043.91;;;10.88
24201;BMP280;2801;50.972;7.856;2023-06-05T00:04:27;98042.19;;;10.84
24201;BMP280;2801;50.972;7.856;2023-06-05T00:06:55;98037.56;;;10.76
24201;BMP280;2801;50.972;7.856;2023-06-05T00:09:23;98049.22;;;10.71
24201;BMP280;2801;50.972;7.856;2023-06-05T00:11:50;98047.91;;;10.60
24201;BMP280;2801;50.972;7.856;2023-06-05T00:14:17;98044.38;;;10.51
24201;BMP280;2801;50.972;7.856;2023-06-05T00:16:44;98049.41;;;10.44
24201;BMP280;2801;50.972;7.856;2023-06-05T00:19:11;98043.19;;;10.35
24201;BMP280;2801;50.972;7.856;2023-06-05T00:21:38;98040.97;;;10.29
24201;BMP280;2801;50.972;7.856;2023-06-05T00:24:06;98040.00;;;10.25
24201;BMP280;2801;50.972;7.856;2023-06-05T00:26:33;98040.59;;;10.22
24201;BMP280;2801;50.972;7.856;2023-06-05T00:29:00;98031.72;;;10.13
24201;BMP280;2801;50.972;7.856;2023-06-05T00:31:27;98043.53;;;10.12
24201;BMP280;2801;50.972;7.856;2023-06-05T00:33:54;98041.78;;;10.07
24201;BMP280;2801;50.972;7.856;2023-06-05T00:36:21;98039.44;;;9.92
24201;BMP280;2801;50.972;7.856;2023-06-05T00:38:50;98040.34;;;9.88
24201;BMP280;2801;50.972;7.856;2023-06-05T00:41:17;98044.69;;;9.62
24201;BMP280;2801;50.972;7.856;2023-06-05T00:43:44;98038.19;;;9.54
24201;BMP280;2801;50.972;7.856;2023-06-05T00:46:11;98039.69;;;9.47
24201;BMP280;2801;50.972;7.856;2023-06-05T00:48:40;98035.34;;;9.37
24201;BMP280;2801;50.972;7.856;2023-06-05T00:51:08;98036.72;;;9.48
24201;BMP280;2801;50.972;7.856;2023-06-05T00:53:42;98041.75;;;9.50
24201;BMP280;2801;50.972;7.856;2023-06-05T00:56:09;98039.88;;;9.50
24201;BMP280;2801;50.972;7.856;2023-06-05T00:58:36;98041.34;;;9.56
24201;BMP280;2801;50.972;7.856;2023-06-05T01:01:06;98037.69;;;9.52
24201;BMP280;2801;50.972;7.856;2023-06-05T01:03:33;98040.66;;;9.51
24201;BMP280;2801;50.972;7.856;2023-06-05T01:06:01;98043.16;;;9.47
24201;BMP280;2801;50.972;7.856;2023-06-05T01:08:34;98043.94;;;9.48
24201;BMP280;2801;50.972;7.856;2023-06-05T01:14:24;98047.03;;;9.41
24201;BMP280;2801;50.972;7.856;2023-06-05T01:16:55;98040.22;;;9.35
24201;BMP280;2801;50.972;7.856;2023-06-05T01:19:24;98045.28;;;9.23
24201;BMP280;2801;50.972;7.856;2023-06-05T01:21:51;98042.25;;;9.16
24201;BMP280;2801;50.972;7.856;2023-06-05T01:24:19;98042.56;;;9.01
24201;BMP280;2801;50.972;7.856;2023-06-05T01:32:56;98031.47;;;8.81
24201;BMP280;2801;50.972;7.856;2023-06-05T01:35:31;98030.25;;;8.87
24201;BMP280;2801;50.972;7.856;2023-06-05T01:38:01;98025.13;;;8.90
24201;BMP280;2801;50.972;7.856;2023-06-05T01:40:34;98034.13;;;8.94
24201;BMP280;2801;50.972;7.856;2023-06-05T01:43:04;98025.81;;;8.96
24201;BMP280;2801;50.972;7.856;2023-06-05T01:45:33;98024.22;;;8.95
24201;BMP280;2801;50.972;7.856;2023-06-05T01:48:04;98021.84;;;8.93
24201;BMP280;2801;50.972;7.856;2023-06-05T01:50:36;98026.69;;;8.91
24201;BMP280;2801;50.972;7.856;2023-06-05T01:53:05;98026.69;;;8.91
24201;BMP280;2801;50.972;7.856;2023-06-05T01:55:32;98017.81;;;8.82
24201;BMP280;2801;50.972;7.856;2023-06-05T01:57:59;98018.00;;;8.72
24201;BMP280;2801;50.972;7.856;2023-06-05T02:00:26;98015.44;;;8.67
24201;BMP280;2801;50.972;7.856;2023-06-05T02:02:53;98010.69;;;8.64
24201;BMP280;2801;50.972;7.856;2023-06-05T02:05:20;98019.47;;;8.65
24201;BMP280;2801;50.972;7.856;2023-06-05T02:07:49;98023.53;;;8.62
24201;BMP280;2801;50.972;7.856;2023-06-05T02:10:20;98014.22;;;8.60
24201;BMP280;2801;50.972;7.856;2023-06-05T02:12:48;98007.09;;;8.55
24201;BMP280;2801;50.972;7.856;2023-06-05T02:15:15;98009.28;;;8.53
24201;BMP280;2801;50.972;7.856;2023-06-05T02:17:44;98004.81;;;8.49
24201;BMP280;2801;50.972;7.856;2023-06-05T02:20:24;98013.13;;;8.47
24201;BMP280;2801;50.972;7.856;2023-06-05T02:22:51;98012.94;;;8.44
24201;BMP280;2801;50.972;7.856;2023-06-05T02:25:19;98001.34;;;8.35
24201;BMP280;2801;50.972;7.856;2023-06-05T02:27:47;98011.25;;;8.34
24201;BMP280;2801;50.972;7.856;2023-06-05T02:30:14;98012.34;;;8.33
24201;BMP280;2801;50.972;7.856;2023-06-05T02:32:42;98012.41;;;8.28
24201;BMP280;2801;50.972;7.856;2023-06-05T02:35:11;98011.13;;;8.26
24201;BMP280;2801;50.972;7.856;2023-06-05T02:37:40;98008.53;;;8.21
24201;BMP280;2801;50.972;7.856;2023-06-05T02:40:12;98012.25;;;8.20
24201;BMP280;2801;50.972;7.856;2023-06-05T02:42:40;98013.63;;;8.17
24201;BMP280;2801;50.972;7.856;2023-06-05T02:45:08;98007.41;;;8.08
24201;BMP280;2801;50.972;7.856;2023-06-05T02:47:36;97998.47;;;7.99
24201;BMP280;2801;50.972;7.856;2023-06-05T02:50:04;98011.53;;;8.01
24201;BMP280;2801;50.972;7.856;2023-06-05T02:52:31;98003.91;;;7.94
24201;BMP280;2801;50.972;7.856;2023-06-05T02:55:02;98011.13;;;7.94
24201;BMP280;2801;50.972;7.856;2023-06-05T02:57:30;98010.09;;;7.90
24201;BMP280;2801;50.972;7.856;2023-06-05T02:59:57;97998.81;;;7.79
24201;BMP280;2801;50.972;7.856;2023-06-05T03:02:24;98001.56;;;7.74
24201;BMP280;2801;50.972;7.856;2023-06-05T03:04:53;97997.91;;;7.70
24201;BMP280;2801;50.972;7.856;2023-06-05T03:07:22;98004.63;;;7.68
24201;BMP280;2801;50.972;7.856;2023-06-05T03:09:49;98001.94;;;7.68
24201;BMP280;2801;50.972;7.856;2023-06-05T03:12:16;97988.38;;;7.64
24201;BMP280;2801;50.972;7.856;2023-06-05T03:14:43;97994.81;;;7.63
24201;BMP280;2801;50.972;7.856;2023-06-05T03:17:10;97991.63;;;7.61
24201;BMP280;2801;50.972;7.856;2023-06-05T03:19:37;97993.50;;;7.60
24201;BMP280;2801;50.972;7.856;2023-06-05T03:22:04;97994.09;;;7.57
24201;BMP280;2801;50.972;7.856;2023-06-05T03:24:31;97986.47;;;7.51
24201;BMP280;2801;50.972;7.856;2023-06-05T03:26:58;97990.41;;;7.53
24201;BMP280;2801;50.972;7.856;2023-06-05T03:29:25;97987.22;;;7.51
24201;BMP280;2801;50.972;7.856;2023-06-05T03:31:52;97994.47;;;7.51
24201;BMP280;2801;50.972;7.856;2023-06-05T03:34:19;97993.38;;;7.52
24201;BMP280;2801;50.972;7.856;2023-06-05T03:36:46;97982.28;;;7.45
24201;BMP280;2801;50.972;7.856;2023-06-05T03:39:14;97981.47;;;7.44
24201;BMP280;2801;50.972;7.856;2023-06-05T03:41:41;97979.84;;;7.48
24201;BMP280;2801;50.972;7.856;2023-06-05T03:44:08;97980.91;;;7.47
24201;BMP280;2801;50.972;7.856;2023-06-05T03:46:35;97984.66;;;7.46
24201;BMP280;2801;50.972;7.856;2023-06-05T03:49:03;97987.22;;;7.51
24201;BMP280;2801;50.972;7.856;2023-06-05T03:51:35;97986.66;;;7.54
24201;BMP280;2801;50.972;7.856;2023-06-05T03:54:03;97982.31;;;7.58
24201;BMP280;2801;50.972;7.856;2023-06-05T03:56:31;97984.63;;;7.65
24201;BMP280;2801;50.972;7.856;2023-06-05T03:59:01;97977.63;;;7.69
24201;BMP280;2801;50.972;7.856;2023-06-05T04:01:43;97991.09;;;7.78
24201;BMP280;2801;50.972;7.856;2023-06-05T04:04:10;97988.84;;;7.85
24201;BMP280;2801;50.972;7.856;2023-06-05T04:06:37;97994.31;;;7.93
24201;BMP280;2801;50.972;7.856;2023-06-05T04:09:05;97991.47;;;8.03
24201;BMP280;2801;50.972;7.856;2023-06-05T04:11:39;97995.91;;;8.08
24201;BMP280;2801;50.972;7.856;2023-06-05T04:14:08;97991.97;;;8.19
24201;BMP280;2801;50.972;7.856;2023-06-05T04:16:38;97990.03;;;8.24
24201;BMP280;2801;50.972;7.856;2023-06-05T04:19:06;97981.94;;;8.29
24201;BMP280;2801;50.972;7.856;2023-06-05T04:21:34;98002.25;;;8.44
24201;BMP280;2801;50.972;7.856;2023-06-05T04:24:07;97984.31;;;8.44
24201;BMP280;2801;50.972;7.856;2023-06-05T04:26:38;97994.44;;;8.61
24201;BMP280;2801;50.972;7.856;2023-06-05T04:29:05;97989.19;;;8.69
24201;BMP280;2801;50.972;7.856;2023-06-05T04:31:52;97991.56;;;8.84
24201;BMP280;2801;50.972;7.856;2023-06-05T04:34:20;97991.06;;;8.96
24201;BMP280;2801;50.972;7.856;2023-06-05T04:36:47;97978.84;;;9.03
24201;BMP280;2801;50.972;7.856;2023-06-05T04:39:17;97989.50;;;9.17
24201;BMP280;2801;50.972;7.856;2023-06-05T04:41:45;97993.75;;;9.31
24201;BMP280;2801;50.972;7.856;2023-06-05T04:44:23;97992.41;;;9.42
24201;BMP280;2801;50.972;7.856;2023-06-05T04:46:50;97989.09;;;9.59
24201;BMP280;2801;50.972;7.856;2023-06-05T04:49:18;97988.84;;;9.69
24201;BMP280;2801;50.972;7.856;2023-06-05T04:51:45;97990.88;;;9.85
24201;BMP280;2801;50.972;7.856;2023-06-05T04:54:12;97988.41;;;9.97
24201;BMP280;2801;50.972;7.856;2023-06-05T04:56:39;97987.75;;;10.14
24201;BMP280;2801;50.972;7.856;2023-06-05T04:59:06;97989.91;;;10.34
24201;BMP280;2801;50.972;7.856;2023-06-05T05:01:33;97988.53;;;10.84
24201;BMP280;2801;50.972;7.856;2023-06-05T05:04:00;97977.59;;;11.62
24201;BMP280;2801;50.972;7.856;2023-06-05T05:06:28;97969.84;;;12.41
24201;BMP280;2801;50.972;7.856;2023-06-05T05:08:55;97968.38;;;13.18
24201;BMP280;2801;50.972;7.856;2023-06-05T05:11:22;97963.41;;;13.82
24201;BMP280;2801;50.972;7.856;2023-06-05T05:13:49;97968.31;;;14.45
24201;BMP280;2801;50.972;7.856;2023-06-05T05:16:16;97962.81;;;15.02
24201;BMP280;2801;50.972;7.856;2023-06-05T05:18:44;97958.81;;;15.47
24201;BMP280;2801;50.972;7.856;2023-06-05T05:21:11;97964.53;;;15.85
24201;BMP280;2801;50.972;7.856;2023-06-05T05:23:38;97955.19;;;16.26
24201;BMP280;2801;50.972;7.856;2023-06-05T05:26:07;97950.34;;;16.62
24201;BMP280;2801;50.972;7.856;2023-06-05T05:28:34;97950.91;;;17.02
24201;BMP280;2801;50.972;7.856;2023-06-05T05:31:01;97947.34;;;17.33
24201;BMP280;2801;50.972;7.856;2023-06-05T05:33:29;97943.34;;;17.61
24201;BMP280;2801;50.972;7.856;2023-06-05T05:35:56;97939.16;;;17.86
24201;BMP280;2801;50.972;7.856;2023-06-05T05:38:23;97918.59;;;18.04
24201;BMP280;2801;50.972;7.856;2023-06-05T05:40:51;97932.50;;;18.45
24201;BMP280;2801;50.972;7.856;2023-06-05T05:43:19;97936.84;;;18.72
24201;BMP280;2801;50.972;7.856;2023-06-05T05:45:46;97930.25;;;18.99
24201;BMP280;2801;50.972;7.856;2023-06-05T05:48:13;97932.56;;;19.23
24201;BMP280;2801;50.972;7.856;2023-06-05T05:50:41;97919.91;;;19.34
24201;BMP280;2801;50.972;7.856;2023-06-05T05:53:08;97943.97;;;19.61
24201;BMP280;2801;50.972;7.856;2023-06-05T05:55:35;97939.53;;;19.79
24201;BMP280;2801;50.972;7.856;2023-06-05T05:58:02;97941.53;;;19.86
24201;BMP280;2801;50.972;7.856;2023-06-05T06:00:29;97942.34;;;19.86
24201;BMP280;2801;50.972;7.856;2023-06-05T06:02:56;97936.47;;;19.84
24201;BMP280;2801;50.972;7.856;2023-06-05T06:05:23;97937.25;;;19.85
24201;BMP280;2801;50.972;7.856;2023-06-05T06:07:51;97941.69;;;19.96
24201;BMP280;2801;50.972;7.856;2023-06-05T06:10:18;97946.06;;;20.08
24201;BMP280;2801;50.972;7.856;2023-06-05T06:12:46;97947.72;;;20.16
24201;BMP280;2801;50.972;7.856;2023-06-05T06:15:13;97948.22;;;20.25
24201;BMP280;2801;50.972;7.856;2023-06-05T06:17:40;97951.50;;;20.41
24201;BMP280;2801;50.972;7.856;2023-06-05T06:20:08;97948.94;;;20.62
24201;BMP280;2801;50.972;7.856;2023-06-05T06:22:40;97942.19;;;20.89
24201;BMP280;2801;50.972;7.856;2023-06-05T06:25:10;97934.97;;;21.14
24201;BMP280;2801;50.972;7.856;2023-06-05T06:27:38;97940.50;;;21.28
24201;BMP280;2801;50.972;7.856;2023-06-05T06:30:06;97940.97;;;21.40
24201;BMP280;2801;50.972;7.856;2023-06-05T06:32:34;97939.91;;;21.63
24201;BMP280;2801;50.972;7.856;2023-06-05T06:35:01;97940.81;;;21.84
24201;BMP280;2801;50.972;7.856;2023-06-05T06:37:29;97936.19;;;22.02
24201;BMP280;2801;50.972;7.856;2023-06-05T06:39:56;97933.50;;;22.27
24201;BMP280;2801;50.972;7.856;2023-06-05T06:42:22;97941.78;;;22.51
24201;BMP280;2801;50.972;7.856;2023-06-05T06:44:49;97937.84;;;22.73
24201;BMP280;2801;50.972;7.856;2023-06-05T06:47:23;97933.56;;;22.97
24201;BMP280;2801;50.972;7.856;2023-06-05T06:49:53;97934.31;;;23.25
24201;BMP280;2801;50.972;7.856;2023-06-05T06:52:20;97935.44;;;23.42
24201;BMP280;2801;50.972;7.856;2023-06-05T06:54:51;97939.28;;;23.65
24201;BMP280;2801;50.972;7.856;2023-06-05T06:57:18;97939.56;;;23.95
24201;BMP280;2801;50.972;7.856;2023-06-05T06:59:45;97930.44;;;24.19
24201;BMP280;2801;50.972;7.856;2023-06-05T07:02:15;97929.03;;;24.52
24201;BMP280;2801;50.972;7.856;2023-06-05T07:04:44;97915.25;;;24.66
24201;BMP280;2801;50.972;7.856;2023-06-05T07:07:16;97924.47;;;24.86
24201;BMP280;2801;50.972;7.856;2023-06-05T07:09:45;97917.88;;;25.21
24201;BMP280;2801;50.972;7.856;2023-06-05T07:12:15;97923.28;;;25.31
24201;BMP280;2801;50.972;7.856;2023-06-05T07:14:42;97916.38;;;25.53
24201;BMP280;2801;50.972;7.856;2023-06-05T07:17:09;97887.28;;;25.59
24201;BMP280;2801;50.972;7.856;2023-06-05T07:19:36;97902.34;;;25.78
24201;BMP280;2801;50.972;7.856;2023-06-05T07:22:05;97910.56;;;25.78
24201;BMP280;2801;50.972;7.856;2023-06-05T07:24:35;97904.88;;;25.95
24201;BMP280;2801;50.972;7.856;2023-06-05T07:27:03;97901.91;;;26.13
24201;BMP280;2801;50.972;7.856;2023-06-05T07:29:30;97892.72;;;26.23
24201;BMP280;2801;50.972;7.856;2023-06-05T07:31:58;97902.56;;;26.47
24201;BMP280;2801;50.972;7.856;2023-06-05T07:34:26;97899.00;;;26.73
24201;BMP280;2801;50.972;7.856;2023-06-05T07:36:54;97901.41;;;26.71
24201;BMP280;2801;50.972;7.856;2023-06-05T07:39:23;97901.84;;;26.69
24201;BMP280;2801;50.972;7.856;2023-06-05T07:41:50;97896.84;;;26.61
24201;BMP280;2801;50.972;7.856;2023-06-05T07:44:20;97900.22;;;26.72
24201;BMP280;2801;50.972;7.856;2023-06-05T07:46:49;97899.03;;;26.96
24201;BMP280;2801;50.972;7.856;2023-06-05T07:49:17;97892.28;;;27.20
24201;BMP280;2801;50.972;7.856;2023-06-05T07:51:45;97899.25;;;27.47
24201;BMP280;2801;50.972;7.856;2023-06-05T07:54:15;97897.19;;;27.71
24201;BMP280;2801;50.972;7.856;2023-06-05T07:56:43;97891.69;;;27.71
24201;BMP280;2801;50.972;7.856;2023-06-05T07:59:10;97896.28;;;27.77
24201;BMP280;2801;50.972;7.856;2023-06-05T08:01:42;97901.41;;;28.15
24201;BMP280;2801;50.972;7.856;2023-06-05T08:04:09;97899.94;;;28.26
24201;BMP280;2801;50.972;7.856;2023-06-05T08:06:39;97903.28;;;28.18
24201;BMP280;2801;50.972;7.856;2023-06-05T08:09:07;97904.34;;;28.40
24201;BMP280;2801;50.972;7.856;2023-06-05T08:11:38;97898.97;;;28.52
24201;BMP280;2801;50.972;7.856;2023-06-05T08:14:05;97898.41;;;28.41
24201;BMP280;2801;50.972;7.856;2023-06-05T08:16:34;97897.59;;;28.44
24201;BMP280;2801;50.972;7.856;2023-06-05T08:19:01;97892.16;;;28.73
24201;BMP280;2801;50.972;7.856;2023-06-05T08:21:28;97896.81;;;28.76
24201;BMP280;2801;50.972;7.856;2023-06-05T08:23:55;97879.19;;;28.86
24201;BMP280;2801;50.972;7.856;2023-06-05T08:26:23;97886.88;;;29.10
24201;BMP280;2801;50.972;7.856;2023-06-05T08:28:50;97875.69;;;29.30
24201;BMP280;2801;50.972;7.856;2023-06-05T08:31:17;97871.22;;;29.48
24201;BMP280;2801;50.972;7.856;2023-06-05T08:33:44;97865.31;;;29.62
24201;BMP280;2801;50.972;7.856;2023-06-05T08:36:11;97874.75;;;29.49
24201;BMP280;2801;50.972;7.856;2023-06-05T08:38:38;97864.06;;;29.51
24201;BMP280;2801;50.972;7.856;2023-06-05T08:41:08;97854.56;;;29.52
24201;BMP280;2801;50.972;7.856;2023-06-05T08:43:39;97867.06;;;29.56
24201;BMP280;2801;50.972;7.856;2023-06-05T08:46:09;97872.50;;;29.31
24201;BMP280;2801;50.972;7.856;2023-06-05T08:48:48;97867.84;;;29.28
24201;BMP280;2801;50.972;7.856;2023-06-05T08:51:18;97862.41;;;29.25
24201;BMP280;2801;50.972;7.856;2023-06-05T08:54:02;97864.69;;;29.14
24201;BMP280;2801;50.972;7.856;2023-06-05T08:56:31;97857.47;;;29.04
24201;BMP280;2801;50.972;7.856;2023-06-05T08:58:59;97863.13;;;28.52
24201;BMP280;2801;50.972;7.856;2023-06-05T09:01:27;97870.63;;;28.16
24201;BMP280;2801;50.972;7.856;2023-06-05T09:03:54;97869.03;;;28.19
24201;BMP280;2801;50.972;7.856;2023-06-05T09:06:21;97862.41;;;28.32
24201;BMP280;2801;50.972;7.856;2023-06-05T09:08:49;97866.25;;;28.19
24201;BMP280;2801;50.972;7.856;2023-06-05T09:11:30;97862.84;;;27.95
24201;BMP280;2801;50.972;7.856;2023-06-05T09:14:00;97843.03;;;27.84
24201;BMP280;2801;50.972;7.856;2023-06-05T09:16:43;97870.34;;;27.95
24201;BMP280;2801;50.972;7.856;2023-06-05T09:19:12;97871.84;;;28.15
24201;BMP280;2801;50.972;7.856;2023-06-05T09:21:40;97860.53;;;28.45
24201;BMP280;2801;50.972;7.856;2023-06-05T09:24:17;97867.09;;;28.51
24201;BMP280;2801;50.972;7.856;2023-06-05T09:27:06;97863.16;;;28.33
24201;BMP280;2801;50.972;7.856;2023-06-05T09:29:38;97855.03;;;28.10
24201;BMP280;2801;50.972;7.856;2023-06-05T09:32:16;97856.50;;;27.78
24201;BMP280;2801;50.972;7.856;2023-06-05T09:34:44;97857.13;;;27.86
24201;BMP280;2801;50.972;7.856;2023-06-05T09:37:13;97851.78;;;28.15
24201;BMP280;2801;50.972;7.856;2023-06-05T09:39:42;97844.38;;;28.28
24201;BMP280;2801;50.972;7.856;2023-06-05T09:42:13;97854.63;;;28.27
24201;BMP280;2801;50.972;7.856;2023-06-05T09:44:40;97852.66;;;28.28
24201;BMP280;2801;50.972;7.856;2023-06-05T09:47:10;97853.19;;;28.55
24201;BMP280;2801;50.972;7.856;2023-06-05T09:52:12;97843.25;;;28.41
24201;BMP280;2801;50.972;7.856;2023-06-05T09:54:43;97848.66;;;28.13
24201;BMP280;2801;50.972;7.856;2023-06-05T09:57:14;97849.50;;;27.94
24201;BMP280;2801;50.972;7.856;2023-06-05T09:59:54;97848.56;;;28.16
24201;BMP280;2801;50.972;7.856;2023-06-05T10:02:32;97838.88;;;28.28
24201;BMP280;2801;50.972;7.856;2023-06-05T10:05:03;97839.13;;;28.65
24201;BMP280;2801;50.972;7.856;2023-06-05T10:07:31;97840.47;;;29.05
24201;BMP280;2801;50.972;7.856;2023-06-05T10:09:59;97834.81;;;29.25
24201;BMP280;2801;50.972;7.856;2023-06-05T10:12:27;97832.59;;;29.32
24201;BMP280;2801;50.972;7.856;2023-06-05T10:14:57;97838.59;;;29.43
24201;BMP280;2801;50.972;7.856;2023-06-05T10:17:25;97827.66;;;29.40
24201;BMP280;2801;50.972;7.856;2023-06-05T10:19:54;97833.88;;;29.44
24201;BMP280;2801;50.972;7.856;2023-06-05T10:22:23;97832.53;;;29.07
24201;BMP280;2801;50.972;7.856;2023-06-05T10:24:57;97830.94;;;28.62
24201;BMP280;2801;50.972;7.856;2023-06-05T10:28:03;97838.97;;;28.24
24201;BMP280;2801;50.972;7.856;2023-06-05T10:36:43;97847.88;;;27.41
24201;BMP280;2801;50.972;7.856;2023-06-05T10:39:14;97828.38;;;27.32
24201;BMP280;2801;50.972;7.856;2023-06-05T10:41:41;97838.41;;;27.42
24201;BMP280;2801;50.972;7.856;2023-06-05T10:44:08;97828.78;;;27.50
24201;BMP280;2801;50.972;7.856;2023-06-05T10:46:36;97835.25;;;27.79
24201;BMP280;2801;50.972;7.856;2023-06-05T10:49:13;97829.47;;;27.73
24201;BMP280;2801;50.972;7.856;2023-06-05T10:51:51;97829.06;;;27.36
24201;BMP280;2801;50.972;7.856;2023-06-05T10:59:23;97835.59;;;27.26
24201;BMP280;2801;50.972;7.856;2023-06-05T11:15:34;97827.13;;;26.94
24201;BMP280;2801;50.972;7.856;2023-06-05T11:18:33;97821.88;;;26.80
24201;BMP280;2801;50.972;7.856;2023-06-05T11:21:01;97839.69;;;26.72
24201;BMP280;2801;50.972;7.856;2023-06-05T11:23:28;97834.50;;;26.77
24201;BMP280;2801;50.972;7.856;2023-06-05T11:25:58;97814.13;;;26.75
24201;BMP280;2801;50.972;7.856;2023-06-05T11:28:44;97822.41;;;26.94
24201;BMP280;2801;50.972;7.856;2023-06-05T11:31:12;97817.03;;;27.07
24201;BMP280;2801;50.972;7.856;2023-06-05T11:33:39;97809.59;;;27.27
24201;BMP280;2801;50.972;7.856;2023-06-05T11:36:07;97808.41;;;27.28
24201;BMP280;2801;50.972;7.856;2023-06-05T11:38:34;97808.31;;;27.12
24201;BMP280;2801;50.972;7.856;2023-06-05T11:41:07;97803.72;;;27.05
24201;BMP280;2801;50.972;7.856;2023-06-05T11:43:41;97805.59;;;27.08
24201;BMP280;2801;50.972;7.856;2023-06-05T11:46:09;97799.19;;;27.15
24201;BMP280;2801;50.972;7.856;2023-06-05T11:48:44;97800.66;;;27.19
24201;BMP280;2801;50.972;7.856;2023-06-05T11:51:11;97788.97;;;27.35
24201;BMP280;2801;50.972;7.856;2023-06-05T11:53:45;97787.13;;;27.48
24201;BMP280;2801;50.972;7.856;2023-06-05T11:56:15;97777.84;;;27.58
24201;BMP280;2801;50.972;7.856;2023-06-05T11:58:44;97779.25;;;27.66
24201;BMP280;2801;50.972;7.856;2023-06-05T12:01:18;97779.22;;;27.50
24201;BMP280;2801;50.972;7.856;2023-06-05T12:04:05;97789.59;;;27.42
24201;BMP280;2801;50.972;7.856;2023-06-05T12:06:44;97780.16;;;27.43
24201;BMP280;2801;50.972;7.856;2023-06-05T12:09:14;97787.91;;;27.48
24201;BMP280;2801;50.972;7.856;2023-06-05T12:11:43;97780.47;;;27.45
24201;BMP280;2801;50.972;7.856;2023-06-05T12:14:29;97765.75;;;27.36
24201;BMP280;2801;50.972;7.856;2023-06-05T12:16:57;97780.06;;;27.47
24201;BMP280;2801;50.972;7.856;2023-06-05T12:19:27;97779.81;;;27.57
24201;BMP280;2801;50.972;7.856;2023-06-05T12:22:04;97776.34;;;27.73
24201;BMP280;2801;50.972;7.856;2023-06-05T12:24:31;97770.81;;;27.73
24201;BMP280;2801;50.972;7.856;2023-06-05T12:27:03;97775.00;;;27.61
24201;BMP280;2801;50.972;7.856;2023-06-05T12:29:34;97769.31;;;27.52
24201;BMP280;2801;50.972;7.856;2023-06-05T12:32:03;97769.50;;;27.61
24201;BMP280;2801;50.972;7.856;2023-06-05T12:34:47;97778.13;;;27.63
24201;BMP280;2801;50.972;7.856;2023-06-05T12:37:33;97765.56;;;27.62
24201;BMP280;2801;50.972;7.856;2023-06-05T12:40:04;97758.09;;;27.79
24201;BMP280;2801;50.972;7.856;2023-06-05T12:42:39;97759.25;;;27.98
24201;BMP280;2801;50.972;7.856;2023-06-05T12:45:09;97761.47;;;28.03
24201;BMP280;2801;50.972;7.856;2023-06-05T12:47:38;97748.06;;;28.05
24201;BMP280;2801;50.972;7.856;2023-06-05T12:50:07;97752.47;;;28.02
24201;BMP280;2801;50.972;7.856;2023-06-05T12:52:39;97747.69;;;28.03
24201;BMP280;2801;50.972;7.856;2023-06-05T12:55:07;97742.13;;;28.06
24201;BMP280;2801;50.972;7.856;2023-06-05T12:57:35;97742.56;;;28.05
24201;BMP280;2801;50.972;7.856;2023-06-05T13:00:07;97742.88;;;27.91
24201;BMP280;2801;50.972;7.856;2023-06-05T13:02:44;97742.72;;;27.98
24201;BMP280;2801;50.972;7.856;2023-06-05T13:05:16;97736.34;;;28.17
24201;BMP280;2801;50.972;7.856;2023-06-05T13:07:43;97728.22;;;28.42
24201;BMP280;2801;50.972;7.856;2023-06-05T13:10:12;97723.38;;;28.62
24201;BMP280;2801;50.972;7.856;2023-06-05T13:12:39;97731.03;;;28.70
24201;BMP280;2801;50.972;7.856;2023-06-05T13:15:07;97721.81;;;28.61
24201;BMP280;2801;50.972;7.856;2023-06-05T13:17:35;97723.47;;;28.58
24201;BMP280;2801;50.972;7.856;2023-06-05T13:20:05;97721.19;;;28.69
24201;BMP280;2801;50.972;7.856;2023-06-05T13:22:37;97714.94;;;28.81
24201;BMP280;2801;50.972;7.856;2023-06-05T13:25:08;97709.75;;;28.83
24201;BMP280;2801;50.972;7.856;2023-06-05T13:27:36;97708.22;;;28.82
24201;BMP280;2801;50.972;7.856;2023-06-05T13:30:04;97704.94;;;29.00
24201;BMP280;2801;50.972;7.856;2023-06-05T13:32:36;97707.66;;;28.87
24201;BMP280;2801;50.972;7.856;2023-06-05T13:35:07;97718.44;;;28.69
24201;BMP280;2801;50.972;7.856;2023-06-05T13:37:36;97706.50;;;28.44
24201;BMP280;2801;50.972;7.856;2023-06-05T13:40:04;97703.19;;;28.20
24201;BMP280;2801;50.972;7.856;2023-06-05T13:42:37;97710.56;;;27.75
24201;BMP280;2801;50.972;7.856;2023-06-05T13:45:04;97708.34;;;27.34
24201;BMP280;2801;50.972;7.856;2023-06-05T13:47:31;97720.66;;;27.10
24201;BMP280;2801;50.972;7.856;2023-06-05T13:49:58;97702.25;;;27.27
24201;BMP280;2801;50.972;7.856;2023-06-05T13:52:26;97694.72;;;27.63
24201;BMP280;2801;50.972;7.856;2023-06-05T13:54:53;97706.91;;;27.98
24201;BMP280;2801;50.972;7.856;2023-06-05T13:57:20;97700.13;;;28.31
24201;BMP280;2801;50.972;7.856;2023-06-05T13:59:47;97696.22;;;28.60
24201;BMP280;2801;50.972;7.856;2023-06-05T14:02:14;97692.19;;;29.06
24201;BMP280;2801;50.972;7.856;2023-06-05T14:04:41;97690.88;;;29.23
24201;BMP280;2801;50.972;7.856;2023-06-05T14:07:08;97694.44;;;29.36
24201;BMP280;2801;50.972;7.856;2023-06-05T14:09:36;97694.88;;;29.34
24201;BMP280;2801;50.972;7.856;2023-06-05T14:12:03;97691.19;;;29.12
24201;BMP280;2801;50.972;7.856;2023-06-05T14:14:30;97689.69;;;28.95
24201;BMP280;2801;50.972;7.856;2023-06-05T14:16:57;97688.22;;;28.78
24201;BMP280;2801;50.972;7.856;2023-06-05T14:19:24;97685.38;;;28.53
24201;BMP280;2801;50.972;7.856;2023-06-05T14:21:51;97686.44;;;28.27
24201;BMP280;2801;50.972;7.856;2023-06-05T14:24:18;97687.34;;;27.92
24201;BMP280;2801;50.972;7.856;2023-06-05T14:26:46;97687.06;;;27.70
24201;BMP280;2801;50.972;7.856;2023-06-05T14:29:13;97691.88;;;27.50
24201;BMP280;2801;50.972;7.856;2023-06-05T14:31:41;97686.97;;;27.42
24201;BMP280;2801;50.972;7.856;2023-06-05T14:34:07;97685.84;;;27.39
24201;BMP280;2801;50.972;7.856;2023-06-05T14:36:36;97687.41;;;27.56
24201;BMP280;2801;50.972;7.856;2023-06-05T14:39:03;97681.69;;;27.83
24201;BMP280;2801;50.972;7.856;2023-06-05T14:41:30;97677.09;;;28.09
24201;BMP280;2801;50.972;7.856;2023-06-05T14:43:57;97665.50;;;28.46
24201;BMP280;2801;50.972;7.856;2023-06-05T14:46:44;97673.56;;;28.81
24201;BMP280;2801;50.972;7.856;2023-06-05T14:49:12;97666.91;;;29.07
24201;BMP280;2801;50.972;7.856;2023-06-05T14:51:39;97667.13;;;29.38
24201;BMP280;2801;50.972;7.856;2023-06-05T14:54:06;97665.59;;;29.49
24201;BMP280;2801;50.972;7.856;2023-06-05T14:56:33;97667.25;;;29.59
24201;BMP280;2801;50.972;7.856;2023-06-05T14:59:00;97666.16;;;29.69
24201;BMP280;2801;50.972;7.856;2023-06-05T15:01:30;97673.22;;;29.70
24201;BMP280;2801;50.972;7.856;2023-06-05T15:03:57;97670.78;;;29.47
24201;BMP280;2801;50.972;7.856;2023-06-05T15:06:24;97670.19;;;29.02
24201;BMP280;2801;50.972;7.856;2023-06-05T15:08:52;97668.31;;;28.58
24201;BMP280;2801;50.972;7.856;2023-06-05T15:11:19;97675.75;;;28.29
24201;BMP280;2801;50.972;7.856;2023-06-05T15:13:47;97677.19;;;27.89
24201;BMP280;2801;50.972;7.856;2023-06-05T15:16:14;97668.97;;;27.53